Time;durP1;ratioP1;P1;durP2;ratioP2;P2;SDS_P1;SDS_P2;PMS_P1;PMS_P2;Temp;Humidity;BMP_temperature;BMP_pressure;BME280_temperature;BME280_humidity;BME280_pressure;Samples;Min_cycle;Max_cycle;Signal;HPM_P1;HPM_P2
2023/03/13 00:01:08;;;;;;;0.20;0.20;;;;;;;8.97;100.00;100252.41;4972774;28;98002;-29
2023/03/13 00:03:34;;;;;;;0.90;0.43;;;;;;;8.93;100.00;100240.94;4971281;28;101199;-30
2023/03/13 00:05:59;;;;;;;0.93;0.28;;;;;;;8.92;100.00;100224.84;4972883;28;96579;-30
2023/03/13 00:08:28;;;;;;;0.43;0.28;;;;;;;8.93;100.00;100222.03;4972595;28;96590;-30
2023/03/13 00:10:54;;;;;;;0.35;0.28;;;;;;;8.94;100.00;100217.53;4972017;28;97513;-30
2023/03/13 00:13:19;;;;;;;2.47;0.68;;;;;;;8.95;100.00;100197.63;4973003;28;97794;-31
2023/03/13 00:15:44;;;;;;;0.80;0.30;;;;;;;8.96;100.00;100190.38;4972701;28;96454;-30
2023/03/13 00:18:10;;;;;;;0.95;0.40;;;;;;;8.97;100.00;100194.84;4972607;28;96814;-30
2023/03/13 00:20:35;;;;;;;0.43;0.28;;;;;;;8.98;100.00;100185.75;4971974;28;97852;-30
2023/03/13 00:23:00;;;;;;;2.25;0.30;;;;;;;9.00;100.00;100173.03;4972503;28;97339;-30
2023/03/13 00:25:26;;;;;;;0.90;0.40;;;;;;;9.02;100.00;100171.09;4972470;28;96566;-29
2023/03/13 00:27:51;;;;;;;0.47;0.25;;;;;;;9.01;100.00;100158.53;4972459;28;96893;-30
2023/03/13 00:30:17;;;;;;;2.47;0.60;;;;;;;9.05;100.00;100154.66;4972166;28;99192;-30
2023/03/13 00:32:45;;;;;;;0.63;0.32;;;;;;;9.07;100.00;100163.53;4972512;28;97368;-30
2023/03/13 00:35:14;;;;;;;2.20;0.35;;;;;;;9.07;100.00;100152.72;4970791;28;96648;-30
2023/03/13 00:37:39;;;;;;;2.28;0.45;;;;;;;9.09;100.00;100143.56;4971388;28;96950;-30
2023/03/13 00:40:07;;;;;;;1.17;0.28;;;;;;;9.11;100.00;100141.63;4972438;28;98121;-30
2023/03/13 00:42:32;;;;;;;1.15;0.30;;;;;;;9.11;100.00;100133.53;4970792;28;101283;-29
2023/03/13 00:44:57;;;;;;;0.45;0.40;;;;;;;9.13;100.00;100125.31;4971916;28;96470;-29
2023/03/13 00:47:23;;;;;;;0.95;0.55;;;;;;;9.16;100.00;100111.59;4972562;28;96824;-30
2023/03/13 00:49:49;;;;;;;1.45;0.60;;;;;;;9.18;100.00;100109.66;4972080;28;97970;-29
2023/03/13 00:52:14;;;;;;;2.72;0.35;;;;;;;9.21;100.00;100105.88;4972100;28;97820;-30
2023/03/13 00:54:40;;;;;;;0.32;0.22;;;;;;;9.23;100.00;100102.09;4972430;28;96552;-29
2023/03/13 00:57:05;;;;;;;1.85;0.32;;;;;;;9.29;100.00;100103.50;4972110;28;96844;-30
2023/03/13 00:59:30;;;;;;;0.50;0.30;;;;;;;9.28;100.00;100086.44;4972046;28;97897;-29
2023/03/13 01:01:56;;;;;;;0.95;0.47;;;;;;;9.31;100.00;100080.81;4974861;28;97898;-29
2023/03/13 01:04:21;;;;;;;1.58;0.43;;;;;;;9.36;100.00;100080.50;4975255;28;97497;-29
2023/03/13 01:06:46;;;;;;;0.40;0.40;;;;;;;9.38;100.00;100077.69;4975976;28;96859;-31
2023/03/13 01:09:14;;;;;;;1.38;0.50;;;;;;;9.38;100.00;100072.28;4975249;28;98130;-29
2023/03/13 01:11:42;;;;;;;0.77;0.50;;;;;;;9.40;100.00;100054.13;4973446;28;101083;-29
2023/03/13 01:14:11;;;;;;;3.22;0.52;;;;;;;9.44;100.00;100063.75;4974219;28;96672;-30
2023/03/13 01:16:37;;;;;;;0.50;0.40;;;;;;;9.45;100.00;100046.56;4975425;28;96839;-30
2023/03/13 01:19:09;;;;;;;0.88;0.65;;;;;;;9.48;100.00;100043.66;4973775;28;101415;-30
2023/03/13 01:21:34;;;;;;;0.38;0.17;;;;;;;9.48;100.00;100040.94;4973824;28;100886;-30
2023/03/13 01:24:00;;;;;;;0.68;0.63;;;;;;;9.56;100.00;100035.88;4975256;28;96632;-30
2023/03/13 01:26:27;;;;;;;1.80;0.70;;;;;;;9.55;100.00;100026.03;4975427;28;96938;-30
2023/03/13 01:28:53;;;;;;;0.35;0.30;;;;;;;9.58;100.00;100031.19;4973784;28;101163;-29
2023/03/13 01:31:21;;;;;;;0.82;0.55;;;;;;;9.61;100.00;100022.91;4973677;28;100779;-31
2023/03/13 01:33:48;;;;;;;1.70;0.50;;;;;;;9.64;100.00;100009.16;4973218;28;98096;-30
2023/03/13 01:36:14;;;;;;;0.65;0.40;;;;;;;9.67;100.00;99998.09;4973785;28;96942;-30
2023/03/13 01:38:39;;;;;;;1.00;0.70;;;;;;;9.70;100.00;100006.03;4973484;28;100500;-31
2023/03/13 01:41:07;;;;;;;0.88;0.47;;;;;;;9.73;100.00;100005.78;4975007;28;97759;-30
2023/03/13 01:43:34;;;;;;;0.32;0.30;;;;;;;9.72;100.00;99979.69;4973614;28;96594;-30
2023/03/13 01:46:26;;;;;;;1.60;0.80;;;;;;;9.74;100.00;99983.16;4973440;28;96785;-30
2023/03/13 01:49:12;;;;;;;1.47;0.60;;;;;;;9.80;100.00;99984.59;4973339;28;101159;-30
2023/03/13 01:51:45;;;;;;;2.50;0.98;;;;;;;9.79;100.00;99977.44;4973722;28;100858;-29
2023/03/13 01:54:20;;;;;;;0.68;0.43;;;;;;;9.83;100.00;99965.41;4973658;28;96717;-30
2023/03/13 01:57:07;;;;;;;0.98;0.70;;;;;;;9.84;100.00;99964.44;4974677;28;96742;-29
2023/03/13 01:59:50;;;;;;;3.15;0.60;;;;;;;9.82;100.00;99955.59;4974408;28;97433;-30
2023/03/13 02:02:15;;;;;;;0.95;0.73;;;;;;;9.83;100.00;99951.03;4974506;28;99058;-30
2023/03/13 02:04:55;;;;;;;0.88;0.65;;;;;;;9.85;100.00;99936.44;4974570;28;96469;-31
2023/03/13 02:07:29;;;;;;;1.23;0.55;;;;;;;9.88;100.00;99940.75;4974645;28;96746;-30
2023/03/13 02:09:55;;;;;;;2.78;0.68;;;;;;;9.87;100.00;99922.81;4972597;28;100937;-29
2023/03/13 02:12:29;;;;;;;0.45;0.45;;;;;;;9.91;100.00;99926.97;4973253;28;99125;-30
2023/03/13 02:14:56;;;;;;;1.33;0.60;;;;;;;9.94;100.00;99921.38;4973101;28;96610;-30
2023/03/13 02:17:22;;;;;;;0.57;0.57;;;;;;;9.96;100.00;99925.69;4973166;28;98014;-30
2023/03/13 02:19:52;;;;;;;1.40;0.90;;;;;;;9.95;100.00;99912.25;4972827;28;100580;-29
2023/03/13 02:22:48;;;;;;;1.92;1.00;;;;;;;10.05;100.00;99924.13;4974197;28;97409;-30
2023/03/13 02:25:22;;;;;;;0.55;0.45;;;;;;;10.07;100.00;99921.31;4973782;28;96601;-30
2023/03/13 02:27:56;;;;;;;2.00;1.13;;;;;;;10.10;100.00;99915.66;4974230;28;96803;-30
2023/03/13 02:30:22;;;;;;;1.08;0.63;;;;;;;10.12;100.00;99919.13;4974315;28;97918;-30
2023/03/13 02:32:47;;;;;;;2.20;1.02;;;;;;;10.14;100.00;99914.47;4972723;28;100953;-30
2023/03/13 02:35:17;;;;;;;1.65;0.65;;;;;;;10.19;100.00;99915.84;4974290;28;96467;-29
2023/03/13 02:37:46;;;;;;;1.52;1.15;;;;;;;10.18;100.00;99910.56;4974134;28;96910;-32
2023/03/13 02:40:16;;;;;;;3.75;1.10;;;;;;;10.23;100.00;99921.91;4972405;28;101164;-30
2023/03/13 02:42:44;;;;;;;1.98;0.68;;;;;;;10.25;100.00;99929.88;4972734;28;101053;-30
2023/03/13 02:45:13;;;;;;;1.65;0.70;;;;;;;10.25;100.00;99906.41;4972612;28;96825;-29
2023/03/13 02:47:38;;;;;;;1.30;0.80;;;;;;;10.26;100.00;99913.53;4972711;28;96932;-30
2023/03/13 02:50:04;;;;;;;0.88;0.80;;;;;;;10.28;100.00;99903.50;4973540;28;97380;-29
2023/03/13 02:52:36;;;;;;;1.00;0.60;;;;;;;10.32;100.00;99914.94;4973666;28;98891;-30
2023/03/13 02:55:08;;;;;;;0.40;0.38;;;;;;;10.32;100.00;99904.09;4972484;28;96597;-30
2023/03/13 02:57:34;;;;;;;1.13;0.80;;;;;;;10.35;100.00;99907.47;4972550;28;96699;-30
2023/03/13 03:00:00;;;;;;;1.48;0.75;;;;;;;10.40;100.00;99896.28;4972285;28;101028;-31
2023/03/13 03:02:25;;;;;;;2.58;0.85;;;;;;;10.39;100.00;99892.72;4972220;28;100829;-29
2023/03/13 03:04:51;;;;;;;0.80;0.68;;;;;;;10.44;100.00;99900.50;4974233;28;96544;-31
2023/03/13 03:07:16;;;;;;;0.95;0.55;;;;;;;10.46;100.00;99890.38;4974007;28;96920;-31
2023/03/13 03:09:41;;;;;;;0.90;0.68;;;;;;;10.47;100.00;99885.84;4973053;28;99344;-29
2023/03/13 03:12:07;;;;;;;1.23;0.40;;;;;;;10.51;100.00;99890.03;4973398;28;97807;-31
2023/03/13 03:14:32;;;;;;;0.40;0.40;;;;;;;10.50;100.00;99881.06;4972918;28;96505;-30
2023/03/13 03:16:58;;;;;;;1.95;0.95;;;;;;;10.53;100.00;99882.66;4973549;28;96805;-30
2023/03/13 03:19:23;;;;;;;1.05;0.57;;;;;;;10.57;100.00;99879.59;4972158;28;101239;-30
2023/03/13 03:21:48;;;;;;;0.70;0.52;;;;;;;10.58;100.00;99872.34;4973335;28;97282;-29
2023/03/13 03:24:14;;;;;;;0.40;0.40;;;;;;;10.58;100.00;99870.50;4972779;28;96919;-30
2023/03/13 03:26:40;;;;;;;1.60;0.40;;;;;;;10.60;100.00;99883.91;4971710;28;96878;-30
2023/03/13 03:29:07;;;;;;;1.20;0.57;;;;;;;10.62;100.00;99885.53;4973730;28;97339;-29
2023/03/13 03:31:32;;;;;;;1.00;0.43;;;;;;;10.64;100.00;99882.72;4972139;28;100930;-30
2023/03/13 03:33:58;;;;;;;0.85;0.63;;;;;;;10.65;100.00;99879.00;4973356;28;96498;-30
2023/03/13 03:36:24;;;;;;;1.63;0.38;;;;;;;10.67;100.00;99873.47;4973253;28;96756;-30
2023/03/13 03:38:49;;;;;;;0.77;0.40;;;;;;;10.73;100.00;99875.72;4972400;28;98365;-30
2023/03/13 03:41:15;;;;;;;2.65;0.63;;;;;;;10.74;100.00;99880.13;4973276;28;97118;-29
2023/03/13 03:43:41;;;;;;;2.92;0.52;;;;;;;10.75;100.00;99873.72;4971653;28;96570;-29
2023/03/13 03:46:07;;;;;;;1.92;0.50;;;;;;;10.76;100.00;99862.78;4971859;28;96813;-31
2023/03/13 03:48:33;;;;;;;0.82;0.30;;;;;;;10.76;100.00;99851.94;4972997;28;97925;-30
2023/03/13 03:50:59;;;;;;;0.63;0.45;;;;;;;10.77;100.00;99864.53;4971463;28;100820;-29
2023/03/13 03:53:24;;;;;;;1.13;0.65;;;;;;;10.80;100.00;99858.00;4971449;28;97128;-30
2023/03/13 03:55:50;;;;;;;0.65;0.50;;;;;;;10.79;100.00;99848.13;4973353;28;96754;-30
2023/03/13 03:58:15;;;;;;;1.50;0.90;;;;;;;10.79;100.00;99857.13;4972732;28;99615;-31
2023/03/13 04:00:45;;;;;;;0.68;0.40;;;;;;;10.81;100.00;99846.19;4972965;28;97788;-30
2023/03/13 04:03:11;;;;;;;0.32;0.28;;;;;;;10.81;100.00;99840.75;4971131;28;97286;-31
2023/03/13 04:05:36;;;;;;;2.95;0.95;;;;;;;10.80;100.00;99844.47;4972553;28;96848;-31
2023/03/13 04:08:02;;;;;;;0.60;0.38;;;;;;;10.82;100.00;99834.34;4972480;28;99304;-31
2023/03/13 04:10:27;;;;;;;0.60;0.50;;;;;;;10.82;100.00;99829.81;4972262;28;97349;-30
2023/03/13 04:12:52;;;;;;;1.05;0.68;;;;;;;10.83;100.00;99836.94;4972570;28;96537;-29
2023/03/13 04:15:17;;;;;;;0.50;0.50;;;;;;;10.88;100.00;99824.88;4972955;28;96814;-30
2023/03/13 04:17:43;;;;;;;0.40;0.40;;;;;;;10.89;100.00;99843.72;4972700;28;97519;-30
2023/03/13 04:20:10;;;;;;;1.38;0.60;;;;;;;10.90;100.00;99829.19;4972830;28;97260;-30
2023/03/13 04:22:35;;;;;;;3.20;0.75;;;;;;;10.93;100.00;99828.94;4971219;28;96756;-29
2023/03/13 04:25:01;;;;;;;1.30;0.55;;;;;;;10.94;100.00;99830.69;4972320;28;96923;-29
2023/03/13 04:27:26;;;;;;;1.38;0.75;;;;;;;10.95;100.00;99834.25;4972003;28;97950;-29
2023/03/13 04:29:51;;;;;;;1.15;0.68;;;;;;;10.97;100.00;99825.00;4972499;28;97878;-31
2023/03/13 04:32:17;;;;;;;1.55;0.82;;;;;;;10.98;100.00;99820.44;4972440;28;96458;-31
2023/03/13 04:34:42;;;;;;;0.88;0.70;;;;;;;10.98;100.00;99815.88;4972506;28;96825;-29
2023/03/13 04:37:07;;;;;;;0.63;0.63;;;;;;;11.00;100.00;99813.06;4971581;28;97470;-30
2023/03/13 04:39:33;;;;;;;0.55;0.45;;;;;;;11.00;100.00;99813.06;4972202;28;98829;-30
2023/03/13 04:41:58;;;;;;;2.13;0.68;;;;;;;11.03;100.00;99801.97;4972534;28;96595;-30
2023/03/13 04:44:23;;;;;;;2.97;0.70;;;;;;;11.07;100.00;99798.03;4972736;28;96660;-30
2023/03/13 04:46:49;;;;;;;0.77;0.60;;;;;;;11.11;100.00;99818.50;4971998;28;99764;-30
2023/03/13 04:49:15;;;;;;;0.68;0.45;;;;;;;11.13;100.00;99799.38;4972230;28;97863;-30
2023/03/13 04:51:41;;;;;;;1.02;0.75;;;;;;;11.15;100.00;99810.97;4971589;28;96610;-30
2023/03/13 04:54:06;;;;;;;1.17;0.80;;;;;;;11.17;100.00;99782.75;4970789;28;96796;-30
2023/03/13 04:56:32;;;;;;;1.50;0.60;;;;;;;11.20;100.00;99793.38;4972091;28;97472;-30
2023/03/13 04:58:57;;;;;;;2.08;1.08;;;;;;;11.23;100.00;99790.38;4972514;28;97168;-31
2023/03/13 05:01:22;;;;;;;0.98;0.57;;;;;;;11.27;100.00;99793.69;4972200;28;96530;-30
2023/03/13 05:03:48;;;;;;;2.55;0.73;;;;;;;11.25;100.00;99774.88;4972352;28;96870;-30
2023/03/13 05:06:13;;;;;;;1.92;1.10;;;;;;;11.30;100.00;99766.38;4971746;28;97877;-29
2023/03/13 05:08:39;;;;;;;1.15;0.85;;;;;;;11.31;100.00;99778.91;4972318;28;97743;-30
2023/03/13 05:11:05;;;;;;;1.30;0.80;;;;;;;11.32;100.00;99766.22;4971777;28;96508;-30
2023/03/13 05:13:30;;;;;;;1.55;0.90;;;;;;;11.32;100.00;99758.97;4970664;28;96930;-30
2023/03/13 05:15:55;;;;;;;1.00;0.77;;;;;;;11.34;100.00;99751.53;4971494;28;98000;-30
2023/03/13 05:18:21;;;;;;;1.55;0.50;;;;;;;11.35;100.00;99742.44;4971680;28;99422;-32
2023/03/13 05:20:47;;;;;;;1.08;0.47;;;;;;;11.37;100.00;99736.88;4972084;28;96630;-30
2023/03/13 05:23:12;;;;;;;0.60;0.60;;;;;;;11.37;100.00;99729.63;4972061;28;96768;-30
2023/03/13 05:25:37;;;;;;;0.68;0.55;;;;;;;11.38;100.00;99725.91;4971757;28;97804;-30
2023/03/13 05:28:03;;;;;;;5.03;1.20;;;;;;;11.40;100.00;99731.22;4971662;28;98745;-30
2023/03/13 05:30:28;;;;;;;3.58;1.10;;;;;;;11.41;100.00;99741.06;4971927;28;96573;-31
2023/03/13 05:32:54;;;;;;;3.33;0.50;;;;;;;11.41;100.00;99722.06;4972283;28;96767;-30
2023/03/13 05:35:19;;;;;;;1.83;0.80;;;;;;;11.44;100.00;99736.25;4971754;28;97997;-30
2023/03/13 05:37:45;;;;;;;0.40;0.40;;;;;;;11.49;100.00;99727.75;4971608;28;99039;-30
2023/03/13 05:40:11;;;;;;;2.97;0.75;;;;;;;11.51;100.00;99730.31;4971155;28;96728;-30
2023/03/13 05:42:37;;;;;;;0.88;0.75;;;;;;;11.51;100.00;99708.59;4970272;28;96977;-31
2023/03/13 05:45:03;;;;;;;0.82;0.57;;;;;;;11.53;100.00;99720.19;4971705;28;97901;-30
2023/03/13 05:47:28;;;;;;;0.45;0.45;;;;;;;11.55;100.00;99718.22;4973012;28;98874;-30
2023/03/13 05:49:54;;;;;;;1.15;0.65;;;;;;;11.57;100.00;99719.81;4974809;28;96652;-31
2023/03/13 05:52:19;;;;;;;3.70;0.77;;;;;;;11.54;100.00;99720.06;4975006;28;96771;-31
2023/03/13 05:54:44;;;;;;;1.15;0.52;;;;;;;11.53;100.00;99709.34;4974875;28;99212;-30
2023/03/13 05:57:10;;;;;;;0.80;0.47;;;;;;;11.53;100.00;99714.78;4975083;28;97265;-30
2023/03/13 05:59:35;;;;;;;1.42;0.47;;;;;;;11.56;100.00;99717.22;4974959;28;96610;-30
2023/03/13 06:02:00;;;;;;;2.28;0.90;;;;;;;11.54;100.00;99711.09;4974775;28;96819;-30
2023/03/13 06:04:26;;;;;;;0.82;0.40;;;;;;;11.54;100.00;99711.94;4974135;28;98028;-30
2023/03/13 06:06:51;;;;;;;2.30;0.50;;;;;;;11.51;100.00;99716.75;4974656;28;97454;-30
2023/03/13 06:09:16;;;;;;;1.27;0.65;;;;;;;11.54;100.00;99724.66;4974811;28;96563;-30
2023/03/13 06:11:42;;;;;;;1.17;0.60;;;;;;;11.54;100.00;99719.22;4974036;28;96863;-30
2023/03/13 06:14:07;;;;;;;0.52;0.38;;;;;;;11.53;100.00;99714.78;4974862;28;97319;-30
2023/03/13 06:16:33;;;;;;;0.80;0.55;;;;;;;11.51;100.00;99731.16;4974518;28;97807;-30
2023/03/13 06:18:58;;;;;;;3.42;1.00;;;;;;;11.52;100.00;99719.34;4974729;28;96637;-29
2023/03/13 06:21:24;;;;;;;0.88;0.65;;;;;;;11.52;100.00;99722.06;4974667;28;96814;-31
2023/03/13 06:23:49;;;;;;;2.78;0.68;;;;;;;11.53;100.00;99722.91;4974205;28;97525;-30
2023/03/13 06:26:14;;;;;;;5.53;1.08;;;;;;;11.52;100.00;99734.75;4974061;28;97843;-30
2023/03/13 06:28:40;;;;;;;3.25;1.10;;;;;;;11.47;100.00;99732.44;4973870;28;96590;-30
2023/03/13 06:31:06;;;;;;;1.05;0.57;;;;;;;11.45;100.00;99727.13;4973951;28;96846;-30
2023/03/13 06:33:32;;;;;;;0.95;0.45;;;;;;;11.40;100.00;99734.78;4972458;28;100755;-30
2023/03/13 06:35:59;;;;;;;1.77;0.65;;;;;;;11.36;100.00;99736.00;4973975;28;99361;-30
2023/03/13 06:38:25;;;;;;;1.17;0.77;;;;;;;11.30;100.00;99733.81;4972772;28;96597;-29
2023/03/13 06:40:50;;;;;;;2.38;0.73;;;;;;;11.27;100.00;99737.66;4974192;28;96851;-30
2023/03/13 06:43:16;;;;;;;2.03;1.00;;;;;;;11.23;100.00;99740.75;4972546;28;97957;-30
2023/03/13 06:45:41;;;;;;;0.45;0.30;;;;;;;11.21;100.00;99743.56;4974630;28;97214;-31
2023/03/13 06:48:06;;;;;;;0.90;0.45;;;;;;;11.16;100.00;99742.22;4973585;28;96811;-30
2023/03/13 06:50:32;;;;;;;1.42;0.82;;;;;;;11.15;100.00;99743.22;4973800;28;96803;-30
2023/03/13 06:52:57;;;;;;;2.35;0.98;;;;;;;11.12;100.00;99746.19;4973554;28;97900;-30
2023/03/13 06:55:23;;;;;;;3.17;1.25;;;;;;;11.09;100.00;99738.31;4973554;28;99285;-30
2023/03/13 06:57:50;;;;;;;0.88;0.77;;;;;;;11.08;100.00;99739.28;4973736;28;96513;-30
2023/03/13 07:00:18;;;;;;;0.63;0.45;;;;;;;11.07;100.00;99745.69;4971740;28;96894;-29
2023/03/13 07:02:43;;;;;;;1.33;0.93;;;;;;;11.05;100.00;99735.81;4971978;28;102357;-30
2023/03/13 07:05:08;;;;;;;0.80;0.50;;;;;;;11.05;100.00;99743.94;4973707;28;97328;-30
2023/03/13 07:07:34;;;;;;;1.90;0.77;;;;;;;11.05;100.00;99737.69;4973748;28;96556;-30
2023/03/13 07:09:59;;;;;;;1.45;0.75;;;;;;;11.02;100.00;99732.53;4973719;28;96994;-30
2023/03/13 07:12:25;;;;;;;1.55;0.70;;;;;;;11.02;100.00;99730.66;4973488;28;97529;-31
2023/03/13 07:14:50;;;;;;;1.00;0.70;;;;;;;10.98;100.00;99722.91;4973588;28;97361;-30
2023/03/13 07:17:15;;;;;;;0.80;0.65;;;;;;;11.01;100.00;99737.09;4973066;28;96767;-29
2023/03/13 07:19:41;;;;;;;1.58;0.73;;;;;;;11.02;100.00;99738.78;4973289;28;96866;-31
2023/03/13 07:22:06;;;;;;;0.98;0.70;;;;;;;11.01;100.00;99737.09;4973374;28;97917;-29
2023/03/13 07:24:32;;;;;;;1.52;0.70;;;;;;;10.98;100.00;99734.59;4972639;28;98786;-30
2023/03/13 07:26:57;;;;;;;2.30;1.10;;;;;;;10.99;100.00;99728.22;4973529;28;96499;-30
2023/03/13 07:29:22;;;;;;;2.97;0.90;;;;;;;11.00;100.00;99737.19;4973425;28;96836;-34
2023/03/13 07:31:48;;;;;;;3.92;0.85;;;;;;;11.02;100.00;99740.66;4973261;28;97402;-30
2023/03/13 07:34:13;;;;;;;3.38;1.00;;;;;;;11.03;100.00;99734.22;4973418;28;97562;-29
2023/03/13 07:36:40;;;;;;;0.88;0.70;;;;;;;11.05;100.00;99743.09;4973346;28;96426;-29
2023/03/13 07:39:06;;;;;;;1.77;0.70;;;;;;;11.05;100.00;99729.53;4971841;28;96861;-30
2023/03/13 07:41:31;;;;;;;2.95;0.52;;;;;;;11.11;100.00;99730.88;4972430;28;99233;-30
2023/03/13 07:43:57;;;;;;;3.13;1.15;;;;;;;11.13;100.00;99742.47;4972993;28;99396;-30
2023/03/13 07:46:22;;;;;;;0.68;0.63;;;;;;;11.20;100.00;99738.25;4973416;28;96469;-30
2023/03/13 07:48:48;;;;;;;2.33;1.15;;;;;;;11.19;100.00;99728.41;4973024;28;96815;-31
2023/03/13 07:51:22;;;;;;;2.60;0.95;;;;;;;11.23;100.00;99711.78;4972590;28;99218;-30
2023/03/13 07:53:48;;;;;;;0.55;0.30;;;;;;;11.19;100.00;99742.84;4972783;28;99620;-30
2023/03/13 07:56:18;;;;;;;5.18;1.05;;;;;;;11.20;100.00;99732.84;4972868;28;96664;-30
2023/03/13 07:58:44;;;;;;;3.40;0.77;;;;;;;11.20;100.00;99738.25;4972134;28;96740;-31
2023/03/13 08:01:11;;;;;;;1.90;0.80;;;;;;;11.20;100.00;99732.84;4971369;28;100801;-30
2023/03/13 08:03:37;;;;;;;0.98;0.70;;;;;;;11.20;100.00;99735.56;4972859;28;98490;-30
2023/03/13 08:06:10;;;;;;;1.05;0.73;;;;;;;11.23;100.00;99738.03;4972143;28;96704;-29
2023/03/13 08:08:37;;;;;;;3.28;0.70;;;;;;;11.21;100.00;99726.44;4971447;28;96928;-29
2023/03/13 08:11:04;;;;;;;0.55;0.50;;;;;;;11.27;100.00;99723.22;4969604;28;100878;-30
2023/03/13 08:13:30;;;;;;;2.08;0.70;;;;;;;11.26;100.00;99714.22;4970955;28;101265;-29
2023/03/13 08:16:08;;;;;;;0.82;0.47;;;;;;;11.25;100.00;99717.94;4971282;28;96609;-30
2023/03/13 08:18:34;;;;;;;1.15;0.40;;;;;;;11.26;100.00;99707.94;4972615;28;96593;-30
2023/03/13 08:21:04;;;;;;;2.92;0.63;;;;;;;11.26;100.00;99706.09;4971332;28;100585;-30
2023/03/13 08:23:29;;;;;;;2.17;0.80;;;;;;;11.27;100.00;99709.66;4972482;28;97905;-31
2023/03/13 08:25:55;;;;;;;0.68;0.52;;;;;;;11.30;100.00;99706.72;4970904;28;96756;-29
2023/03/13 08:28:20;;;;;;;3.17;0.65;;;;;;;11.30;100.00;99695.88;4972537;28;96768;-30
2023/03/13 08:30:45;;;;;;;0.80;0.52;;;;;;;11.30;100.00;99704.00;4971992;28;97279;-29
2023/03/13 08:33:11;;;;;;;1.05;0.50;;;;;;;11.31;100.00;99716.56;4972544;28;97217;-31
2023/03/13 08:35:36;;;;;;;0.88;0.40;;;;;;;11.31;100.00;99718.41;4972642;28;96586;-30
2023/03/13 08:38:01;;;;;;;2.33;0.55;;;;;;;11.36;100.00;99705.34;4972577;28;96759;-29
2023/03/13 08:40:27;;;;;;;0.60;0.45;;;;;;;11.38;100.00;99720.47;4972029;28;99347;-30
2023/03/13 08:42:53;;;;;;;0.35;0.30;;;;;;;11.45;100.00;99708.13;4972089;28;97793;-29
2023/03/13 08:45:18;;;;;;;1.55;0.82;;;;;;;11.77;100.00;99690.97;4971036;28;96651;-30
2023/03/13 08:47:44;;;;;;;0.60;0.50;;;;;;;12.21;100.00;99680.91;4972975;28;96793;-29
2023/03/13 08:50:10;;;;;;;3.42;0.40;;;;;;;12.55;100.00;99675.22;4972198;28;97433;-29
2023/03/13 08:52:35;;;;;;;0.32;0.30;;;;;;;12.80;100.00;99676.63;4970760;28;100985;-29
2023/03/13 08:55:01;;;;;;;2.85;0.60;;;;;;;12.92;100.00;99663.78;4971854;28;96591;-30
2023/03/13 08:57:26;;;;;;;4.57;0.70;;;;;;;13.17;99.95;99660.53;4972306;28;96901;-29
2023/03/13 08:59:51;;;;;;;1.15;0.55;;;;;;;13.34;98.63;99655.44;4971883;28;99019;-29
2023/03/13 09:02:19;;;;;;;1.73;0.85;;;;;;;13.39;96.85;99644.97;4972164;28;97762;-29
2023/03/13 09:04:46;;;;;;;1.33;0.70;;;;;;;13.68;96.40;99647.72;4970842;28;96668;-31
2023/03/13 09:07:12;;;;;;;1.83;0.98;;;;;;;14.00;94.42;99639.22;4970661;28;96839;-31
2023/03/13 09:09:37;;;;;;;4.15;0.50;;;;;;;14.00;93.89;99633.78;4972076;28;97824;-30
2023/03/13 09:12:02;;;;;;;7.07;0.52;;;;;;;13.85;92.34;99623.47;4971816;28;97261;-30
2023/03/13 09:14:28;;;;;;;0.93;0.50;;;;;;;13.71;92.19;99630.25;4972117;28;96689;-30
2023/03/13 09:16:55;;;;;;;3.20;0.73;;;;;;;13.78;93.67;99634.97;4971962;28;96858;-32
2023/03/13 09:19:20;;;;;;;2.30;0.55;;;;;;;13.97;92.83;99631.34;4969932;28;100940;-30
2023/03/13 09:21:48;;;;;;;1.08;0.40;;;;;;;13.90;92.50;99622.06;4972381;28;97322;-30
2023/03/13 09:24:14;;;;;;;0.95;0.47;;;;;;;13.77;90.84;99622.34;4975157;28;96583;-32
2023/03/13 09:26:40;;;;;;;0.43;0.30;;;;;;;13.71;90.98;99613.91;4973834;28;96891;-30
2023/03/13 09:29:06;;;;;;;1.42;0.50;;;;;;;13.62;92.00;99612.91;4973638;28;101547;-30
2023/03/13 09:31:32;;;;;;;1.73;0.40;;;;;;;13.55;91.92;99609.06;4975289;28;97757;-30
2023/03/13 09:33:58;;;;;;;2.72;0.50;;;;;;;13.46;90.71;99618.94;4973883;28;96516;-30
2023/03/13 09:36:25;;;;;;;1.30;0.68;;;;;;;13.68;92.00;99622.34;4974140;28;96814;-30
2023/03/13 09:38:55;;;;;;;0.45;0.30;;;;;;;13.75;89.73;99602.59;4973528;28;101131;-31
2023/03/13 09:41:31;;;;;;;1.15;0.45;;;;;;;13.73;89.72;99592.84;4974943;28;98063;-30
2023/03/13 09:44:09;;;;;;;2.13;0.45;;;;;;;13.72;90.36;99585.69;4973302;28;96813;-30
2023/03/13 09:46:40;;;;;;;0.45;0.25;;;;;;;13.67;89.52;99572.50;4973583;28;97217;-30
2023/03/13 09:49:16;;;;;;;0.57;0.30;;;;;;;13.65;90.26;99573.66;4975104;28;98037;-31
2023/03/13 09:51:46;;;;;;;1.30;0.50;;;;;;;13.81;89.53;99576.66;4973436;28;100758;-31
2023/03/13 09:54:26;;;;;;;2.10;0.40;;;;;;;13.84;87.82;99559.16;4973670;28;96886;-30
2023/03/13 09:57:14;;;;;;;1.10;0.40;;;;;;;13.82;88.09;99562.03;4973761;28;96758;-29
2023/03/13 09:59:42;;;;;;;1.65;0.32;;;;;;;13.78;88.96;99568.78;4973380;28;100649;-30
2023/03/13 10:02:22;;;;;;;1.25;0.60;;;;;;;13.73;88.97;99587.41;4974956;28;97848;-30
2023/03/13 10:04:55;;;;;;;1.02;0.65;;;;;;;13.69;89.38;99567.78;4975060;28;96691;-30
2023/03/13 10:07:20;;;;;;;1.90;0.43;;;;;;;13.75;88.22;99571.78;4974933;28;96628;-30
2023/03/13 10:09:45;;;;;;;1.02;0.40;;;;;;;13.92;88.30;99576.50;4973813;28;97899;-30
2023/03/13 10:12:20;;;;;;;0.57;0.30;;;;;;;14.19;87.34;99572.09;4974379;28;99743;-29
2023/03/13 10:15:06;;;;;;;0.22;0.22;;;;;;;14.13;86.90;99567.22;4974455;28;96523;-30
2023/03/13 10:17:33;;;;;;;3.17;0.52;;;;;;;14.12;85.87;99579.16;4974494;28;96646;-31
2023/03/13 10:20:26;;;;;;;0.98;0.25;;;;;;;14.17;86.08;99564.06;4974344;28;98043;-30
2023/03/13 10:23:15;;;;;;;0.43;0.40;;;;;;;14.16;85.27;99570.53;4972664;28;100710;-31
2023/03/13 10:25:40;;;;;;;0.95;0.70;;;;;;;14.14;85.16;99558.94;4973170;28;96856;-30
2023/03/13 10:28:11;;;;;;;0.93;0.43;;;;;;;14.21;84.81;99562.78;4974789;28;96838;-31
2023/03/13 10:30:42;;;;;;;3.13;0.60;;;;;;;14.32;81.91;99561.69;4972808;28;99986;-30
2023/03/13 10:33:07;;;;;;;0.73;0.52;;;;;;;14.36;80.54;99573.16;4971861;28;100883;-30
2023/03/13 10:35:38;;;;;;;1.35;0.77;;;;;;;14.44;80.99;99560.53;4973564;28;96459;-29
2023/03/13 10:38:21;;;;;;;0.40;0.30;;;;;;;14.42;78.82;99561.69;4972939;28;98044;-29
2023/03/13 10:40:58;;;;;;;2.25;0.70;;;;;;;14.36;80.77;99568.56;4972686;28;99132;-32
2023/03/13 10:43:25;;;;;;;1.65;0.55;;;;;;;14.53;78.21;99568.78;4972627;28;100969;-30
2023/03/13 10:45:51;;;;;;;2.55;0.70;;;;;;;14.75;78.48;99562.94;4972830;28;96527;-31
2023/03/13 10:48:22;;;;;;;1.92;0.50;;;;;;;15.14;76.97;99557.22;4974137;28;96755;-30
2023/03/13 10:50:52;;;;;;;2.72;0.40;;;;;;;15.42;76.00;99544.34;4972300;28;101244;-29
2023/03/13 10:53:29;;;;;;;1.50;0.35;;;;;;;15.76;74.92;99537.31;4974191;28;99098;-30
2023/03/13 10:55:57;;;;;;;1.50;0.50;;;;;;;16.12;73.39;99530.69;4972501;28;96576;-30
2023/03/13 10:58:32;;;;;;;2.35;0.80;;;;;;;16.13;70.33;99518.72;4973906;28;96715;-30
2023/03/13 11:01:25;;;;;;;0.93;0.45;;;;;;;16.38;70.30;99524.31;4971878;28;103031;-30
2023/03/13 11:03:53;;;;;;;3.08;1.25;;;;;;;16.59;70.58;99525.75;4972313;28;100802;-31
2023/03/13 11:06:31;;;;;;;4.63;0.70;;;;;;;16.47;66.78;99537.00;4972317;28;96705;-31
2023/03/13 11:09:09;;;;;;;3.00;0.90;;;;;;;16.18;66.80;99523.69;4973852;28;96571;-30
2023/03/13 11:11:49;;;;;;;2.55;0.60;;;;;;;15.99;69.61;99522.06;4972913;28;98008;-30
2023/03/13 11:14:21;;;;;;;1.23;0.38;;;;;;;15.90;66.85;99515.72;4972076;28;100825;-30
2023/03/13 11:16:55;;;;;;;1.83;0.50;;;;;;;15.67;70.07;99537.19;4972087;28;96569;-31
2023/03/13 11:19:45;;;;;;;1.95;0.60;;;;;;;15.39;69.38;99527.44;4974389;28;96423;-30
2023/03/13 11:22:13;;;;;;;1.98;0.50;;;;;;;15.22;69.16;99540.06;4973450;28;97488;-31
2023/03/13 11:24:48;;;;;;;1.25;0.73;;;;;;;15.11;71.12;99541.19;4973111;28;97876;-30
2023/03/13 11:27:41;;;;;;;1.17;0.32;;;;;;;15.01;70.98;99526.75;4971552;28;98201;-31
2023/03/13 11:30:34;;;;;;;2.35;0.75;;;;;;;15.03;69.63;99520.13;4973653;28;96613;-30